Time;durP1;ratioP1;P1;durP2;ratioP2;P2;SDS_P1;SDS_P2;PMS_P1;PMS_P2;Temp;Humidity;BMP_temperature;BMP_pressure;BME280_temperature;BME280_humidity;BME280_pressure;Samples;Min_cycle;Max_cycle;Signal;HPM_P1;HPM_P2
2022/08/03 00:02:20;;;;;;;4.00;3.70;;;;;;;;;;5081428;28;24438;-46
2022/08/03 00:04:45;;;;;;;4.40;4.10;;;;;;;;;;5082411;28;24429;-45
2022/08/03 00:07:10;;;;;;;4.97;4.57;;;;;;;;;;5079632;28;24430;-45
2022/08/03 00:09:35;;;;;;;5.10;4.80;;;;;;;;;;5072579;28;24491;-45
2022/08/03 00:12:00;;;;;;;5.60;5.20;;;;;;;;;;5086919;28;24398;-45
2022/08/03 00:14:26;;;;;;;5.43;5.03;;;;;;;;;;5086006;28;25047;-45
2022/08/03 00:16:51;;;;;;;4.90;4.50;;;;;;;;;;5085253;28;24426;-45
2022/08/03 00:19:16;;;;;;;5.45;5.05;;;;;;;;;;5082127;28;24540;-45
2022/08/03 00:21:41;;;;;;;5.75;5.25;;;;;;;;;;5078065;28;24428;-46
2022/08/03 00:24:06;;;;;;;5.40;5.00;;;;;;;;;;5082991;28;24714;-46
2022/08/03 00:26:31;;;;;;;4.97;4.57;;;;;;;;;;5076097;28;24426;-46
2022/08/03 00:28:57;;;;;;;5.17;4.77;;;;;;;;;;5077639;28;24435;-45
2022/08/03 00:31:22;;;;;;;4.30;4.00;;;;;;;;;;5067554;28;24438;-46
2022/08/03 00:33:47;;;;;;;4.20;3.90;;;;;;;;;;5073882;28;24426;-45
2022/08/03 00:36:12;;;;;;;4.28;3.97;;;;;;;;;;5083406;28;24501;-45
2022/08/03 00:38:37;;;;;;;4.63;4.32;;;;;;;;;;5085785;28;24441;-45
2022/08/03 00:41:02;;;;;;;4.30;4.00;;;;;;;;;;5085204;28;24809;-46
2022/08/03 00:43:27;;;;;;;4.50;4.20;;;;;;;;;;5085664;28;24429;-45
2022/08/03 00:45:53;;;;;;;4.60;4.30;;;;;;;;;;5081013;28;24462;-46
2022/08/03 00:48:18;;;;;;;4.43;4.13;;;;;;;;;;5082015;28;24984;-46
2022/08/03 00:50:44;;;;;;;4.60;4.20;;;;;;;;;;5073508;28;24422;-45
2022/08/03 00:53:13;;;;;;;4.35;4.05;;;;;;;;;;5069726;28;24430;-45
2022/08/03 00:55:38;;;;;;;4.22;3.92;;;;;;;;;;5069879;28;24992;-45
2022/08/03 00:58:05;;;;;;;4.57;4.27;;;;;;;;;;5077640;28;24476;-45
2022/08/03 01:00:30;;;;;;;4.32;4.03;;;;;;;;;;5080914;28;24521;-45
2022/08/03 01:02:56;;;;;;;4.50;4.20;;;;;;;;;;5082748;28;24564;-45
2022/08/03 01:05:21;;;;;;;4.65;4.25;;;;;;;;;;5080901;28;24422;-45
2022/08/03 01:08:02;;;;;;;4.73;4.43;;;;;;;;;;5083807;28;24792;-45
2022/08/03 01:10:32;;;;;;;4.45;4.15;;;;;;;;;;5085291;28;24521;-45
2022/08/03 01:13:03;;;;;;;4.53;4.22;;;;;;;;;;5071673;28;24561;-45
2022/08/03 01:15:39;;;;;;;5.00;4.50;;;;;;;;;;5066333;28;24860;-45
2022/08/03 01:18:08;;;;;;;5.63;5.22;;;;;;;;;;5068481;28;25037;-45
2022/08/03 01:20:35;;;;;;;5.60;5.20;;;;;;;;;;5073351;28;24434;-45
2022/08/03 01:23:09;;;;;;;4.82;4.53;;;;;;;;;;5075875;28;24994;-45
2022/08/03 01:25:53;;;;;;;5.00;4.70;;;;;;;;;;5076233;28;24513;-45
2022/08/03 01:28:21;;;;;;;5.70;5.20;;;;;;;;;;5070335;28;24434;-46
2022/08/03 01:30:46;;;;;;;4.80;4.50;;;;;;;;;;5082649;28;25032;-46
2022/08/03 01:33:14;;;;;;;5.60;5.20;;;;;;;;;;5067555;28;24484;-45
2022/08/03 01:35:44;;;;;;;5.90;5.50;;;;;;;;;;5078244;28;24435;-46
2022/08/03 01:38:10;;;;;;;5.82;5.43;;;;;;;;;;5073605;28;24505;-46
2022/08/03 01:40:36;;;;;;;5.85;5.45;;;;;;;;;;5075476;28;24429;-46
2022/08/03 01:43:03;;;;;;;6.15;5.57;;;;;;;;;;5081569;28;24916;-47
2022/08/03 01:45:29;;;;;;;5.60;5.20;;;;;;;;;;5086311;28;24721;-46
2022/08/03 01:47:55;;;;;;;6.00;5.60;;;;;;;;;;5084302;28;24588;-45
2022/08/03 01:50:22;;;;;;;6.30;5.70;;;;;;;;;;5080972;28;25204;-45
2022/08/03 01:52:48;;;;;;;6.40;5.90;;;;;;;;;;5076125;28;24429;-46
2022/08/03 01:55:15;;;;;;;5.80;5.40;;;;;;;;;;5083653;28;24425;-44
2022/08/03 01:57:42;;;;;;;5.68;5.28;;;;;;;;;;5084139;28;24529;-44
2022/08/03 02:00:10;;;;;;;6.10;5.60;;;;;;;;;;5079361;28;24447;-45
2022/08/03 02:02:36;;;;;;;5.90;5.50;;;;;;;;;;5077597;28;24419;-44
2022/08/03 02:05:03;;;;;;;6.50;6.00;;;;;;;;;;5071608;28;25037;-45
2022/08/03 02:07:29;;;;;;;6.75;6.30;;;;;;;;;;5076427;28;24453;-46
2022/08/03 02:09:54;;;;;;;6.13;5.63;;;;;;;;;;5084946;28;24983;-45
2022/08/03 02:12:21;;;;;;;5.90;5.50;;;;;;;;;;5090201;28;25014;-45
2022/08/03 02:14:47;;;;;;;6.50;6.00;;;;;;;;;;5078266;28;24830;-45
2022/08/03 02:17:13;;;;;;;6.68;6.28;;;;;;;;;;5077399;28;25140;-45
2022/08/03 02:19:39;;;;;;;6.30;5.80;;;;;;;;;;5083851;28;24487;-44
2022/08/03 02:22:07;;;;;;;6.50;6.00;;;;;;;;;;5078003;28;24427;-44
2022/08/03 02:24:32;;;;;;;6.40;5.90;;;;;;;;;;5077416;28;25111;-44
2022/08/03 02:26:58;;;;;;;6.30;5.80;;;;;;;;;;5083614;28;24502;-44
2022/08/03 02:29:24;;;;;;;6.70;6.20;;;;;;;;;;5072346;28;24553;-45
2022/08/03 02:31:50;;;;;;;7.63;6.93;;;;;;;;;;5075111;28;24963;-45
2022/08/03 02:34:18;;;;;;;7.10;6.60;;;;;;;;;;5069298;28;24431;-44
2022/08/03 02:36:45;;;;;;;7.50;7.00;;;;;;;;;;5080713;28;24518;-45
2022/08/03 02:39:12;;;;;;;7.20;6.63;;;;;;;;;;5086179;28;24967;-45
2022/08/03 02:41:41;;;;;;;6.75;6.30;;;;;;;;;;5071702;28;24438;-45
2022/08/03 02:44:08;;;;;;;7.40;6.80;;;;;;;;;;5079730;28;24990;-44
2022/08/03 02:46:36;;;;;;;7.43;6.93;;;;;;;;;;5080376;28;24465;-44
2022/08/03 02:49:02;;;;;;;7.00;6.50;;;;;;;;;;5068657;28;24957;-45
2022/08/03 02:51:28;;;;;;;7.40;6.90;;;;;;;;;;5077826;28;24500;-45
2022/08/03 02:53:55;;;;;;;7.90;7.30;;;;;;;;;;5075064;28;24422;-46
2022/08/03 02:56:21;;;;;;;7.18;6.68;;;;;;;;;;5086487;28;24439;-45
2022/08/03 02:58:48;;;;;;;7.13;6.63;;;;;;;;;;5084306;28;24488;-45
2022/08/03 03:01:14;;;;;;;7.47;6.88;;;;;;;;;;5081787;28;24418;-45
2022/08/03 03:03:39;;;;;;;7.20;6.60;;;;;;;;;;5084925;28;24602;-44
2022/08/03 03:06:05;;;;;;;7.00;6.40;;;;;;;;;;5086571;28;24426;-45
2022/08/03 03:08:31;;;;;;;7.05;6.45;;;;;;;;;;5074696;28;24424;-44
2022/08/03 03:10:58;;;;;;;7.10;6.50;;;;;;;;;;5085762;28;24437;-44
2022/08/03 03:13:23;;;;;;;6.97;6.47;;;;;;;;;;5077553;28;25018;-45
2022/08/03 03:15:48;;;;;;;6.90;6.30;;;;;;;;;;5074503;28;24430;-44
2022/08/03 03:18:15;;;;;;;6.40;6.00;;;;;;;;;;5083292;28;24423;-46
2022/08/03 03:20:41;;;;;;;7.10;6.60;;;;;;;;;;5075443;28;24491;-45
2022/08/03 03:23:07;;;;;;;7.55;7.05;;;;;;;;;;5080724;28;24414;-45
2022/08/03 03:25:33;;;;;;;8.43;7.83;;;;;;;;;;5077003;28;24521;-45
2022/08/03 03:27:58;;;;;;;7.60;7.00;;;;;;;;;;5074914;28;24518;-45
2022/08/03 03:30:24;;;;;;;8.02;7.43;;;;;;;;;;5075323;28;25007;-45
2022/08/03 03:32:49;;;;;;;7.70;7.10;;;;;;;;;;5069456;28;24460;-46
2022/08/03 03:35:15;;;;;;;7.60;7.00;;;;;;;;;;5076263;28;25064;-45
2022/08/03 03:37:40;;;;;;;8.53;7.93;;;;;;;;;;5077510;28;24598;-45
2022/08/03 03:40:07;;;;;;;8.80;8.20;;;;;;;;;;5078642;28;24521;-45
2022/08/03 03:42:33;;;;;;;7.40;6.90;;;;;;;;;;5086707;28;24512;-45
2022/08/03 03:44:58;;;;;;;8.60;8.00;;;;;;;;;;5072364;28;24886;-45
2022/08/03 03:47:23;;;;;;;7.30;6.80;;;;;;;;;;5078977;28;25078;-45
2022/08/03 03:49:48;;;;;;;8.13;7.33;;;;;;;;;;5084990;28;24445;-45
2022/08/03 03:52:15;;;;;;;7.83;7.23;;;;;;;;;;5068519;28;24992;-45
2022/08/03 03:54:41;;;;;;;7.95;7.25;;;;;;;;;;5075114;28;24426;-45
2022/08/03 03:57:06;;;;;;;9.25;8.55;;;;;;;;;;5081984;28;24430;-45
2022/08/03 03:59:31;;;;;;;8.05;7.45;;;;;;;;;;5079308;28;24739;-45
2022/08/03 04:01:57;;;;;;;8.10;7.50;;;;;;;;;;5081235;28;24492;-45
2022/08/03 04:12:35;;;;;;;8.40;7.80;;;;;;;;;;5072275;28;24777;-46
2022/08/03 04:15:01;;;;;;;8.70;8.00;;;;;;;;;;5078257;28;25089;-46
2022/08/03 04:17:28;;;;;;;8.80;7.90;;;;;;;;;;5085078;28;24413;-45
2022/08/03 04:19:54;;;;;;;9.13;8.32;;;;;;;;;;5066587;28;24405;-47
2022/08/03 04:22:22;;;;;;;9.40;8.60;;;;;;;;;;5080621;28;24573;-45
2022/08/03 04:24:54;;;;;;;9.00;8.35;;;;;;;;;;5069408;28;24418;-46
2022/08/03 04:27:24;;;;;;;9.27;8.43;;;;;;;;;;5084828;28;24430;-45
2022/08/03 04:29:51;;;;;;;8.40;7.70;;;;;;;;;;5073741;28;24517;-44
2022/08/03 04:32:17;;;;;;;8.82;8.13;;;;;;;;;;5084825;28;24418;-44
2022/08/03 04:34:43;;;;;;;9.68;8.88;;;;;;;;;;5084357;28;24405;-46
2022/08/03 04:37:10;;;;;;;7.80;7.20;;;;;;;;;;5081528;28;24434;-46
2022/08/03 04:39:37;;;;;;;7.65;7.05;;;;;;;;;;5081140;28;24508;-45
2022/08/03 04:42:05;;;;;;;7.60;7.00;;;;;;;;;;5082322;28;24980;-46
2022/08/03 04:44:34;;;;;;;7.55;6.80;;;;;;;;;;5076684;28;24429;-45
2022/08/03 04:46:59;;;;;;;7.97;7.17;;;;;;;;;;5075714;28;24499;-45
2022/08/03 04:49:25;;;;;;;7.43;6.83;;;;;;;;;;5070144;28;24434;-46
2022/08/03 04:51:51;;;;;;;7.27;6.57;;;;;;;;;;5080160;28;24892;-45
2022/08/03 04:54:16;;;;;;;7.88;7.18;;;;;;;;;;5080348;28;24420;-45
2022/08/03 04:56:42;;;;;;;6.60;6.10;;;;;;;;;;5075250;28;24505;-45
2022/08/03 04:59:07;;;;;;;6.93;6.43;;;;;;;;;;5075652;28;24580;-45
2022/08/03 05:01:32;;;;;;;5.97;5.47;;;;;;;;;;5086882;28;25268;-45
2022/08/03 05:03:58;;;;;;;6.20;5.80;;;;;;;;;;5074563;28;24828;-45
2022/08/03 05:06:23;;;;;;;6.20;5.60;;;;;;;;;;5065929;28;24414;-45
2022/08/03 05:08:48;;;;;;;4.70;4.37;;;;;;;;;;5066656;28;24949;-44
2022/08/03 05:11:14;;;;;;;4.80;4.40;;;;;;;;;;5074885;28;24459;-45
2022/08/03 05:13:39;;;;;;;5.00;4.65;;;;;;;;;;5073746;28;24458;-46
2022/08/03 05:16:04;;;;;;;5.05;4.65;;;;;;;;;;5068017;28;25015;-45
2022/08/03 05:18:31;;;;;;;5.37;4.87;;;;;;;;;;5070681;28;24499;-46
2022/08/03 05:20:56;;;;;;;4.80;4.40;;;;;;;;;;5076856;28;24944;-44
2022/08/03 05:23:21;;;;;;;4.68;4.38;;;;;;;;;;5077174;28;24470;-45
2022/08/03 05:25:46;;;;;;;5.80;4.70;;;;;;;;;;5075212;28;25025;-46
2022/08/03 05:28:11;;;;;;;5.00;4.63;;;;;;;;;;5083617;28;24955;-45
2022/08/03 05:30:37;;;;;;;4.60;4.30;;;;;;;;;;5065792;28;25014;-43
2022/08/03 05:33:02;;;;;;;6.22;4.68;;;;;;;;;;5063006;28;24394;-45
2022/08/03 05:35:28;;;;;;;4.60;4.20;;;;;;;;;;5062733;28;24944;-44
2022/08/03 05:37:53;;;;;;;4.70;4.40;;;;;;;;;;5074337;28;24926;-45
2022/08/03 05:40:18;;;;;;;5.00;4.60;;;;;;;;;;5077128;28;24971;-45
2022/08/03 05:42:43;;;;;;;4.70;4.40;;;;;;;;;;5087645;28;24661;-44
2022/08/03 05:45:17;;;;;;;4.72;4.32;;;;;;;;;;5079451;28;24841;-45
2022/08/03 05:47:43;;;;;;;5.30;4.90;;;;;;;;;;5071208;28;24474;-45
2022/08/03 05:50:08;;;;;;;5.20;4.90;;;;;;;;;;5074132;28;24462;-45
2022/08/03 05:52:33;;;;;;;5.23;4.63;;;;;;;;;;5074007;28;24421;-45
2022/08/03 05:54:58;;;;;;;5.47;5.07;;;;;;;;;;5067307;28;24453;-45
2022/08/03 05:57:24;;;;;;;5.80;5.40;;;;;;;;;;5077203;28;24426;-45
2022/08/03 05:59:49;;;;;;;5.93;5.53;;;;;;;;;;5079656;28;24470;-45
2022/08/03 06:02:14;;;;;;;6.88;6.30;;;;;;;;;;5076217;28;24422;-46
2022/08/03 06:04:39;;;;;;;6.63;6.13;;;;;;;;;;5083390;28;24540;-46
2022/08/03 06:07:05;;;;;;;6.82;6.25;;;;;;;;;;5074415;28;25389;-45
2022/08/03 06:09:30;;;;;;;7.00;6.50;;;;;;;;;;5085051;28;24411;-45
2022/08/03 06:11:55;;;;;;;6.35;5.75;;;;;;;;;;5073529;28;24525;-45
2022/08/03 06:14:20;;;;;;;6.17;5.77;;;;;;;;;;5086936;28;25013;-45
2022/08/03 06:16:45;;;;;;;7.20;6.70;;;;;;;;;;5081892;28;24426;-45
2022/08/03 06:19:10;;;;;;;7.25;6.57;;;;;;;;;;5075196;28;24427;-45
2022/08/03 06:21:35;;;;;;;7.20;6.70;;;;;;;;;;5071509;28;24952;-45
2022/08/03 06:24:00;;;;;;;7.53;6.93;;;;;;;;;;5078927;28;24429;-45
2022/08/03 06:26:26;;;;;;;6.57;5.97;;;;;;;;;;5067033;28;24433;-45
2022/08/03 06:28:51;;;;;;;6.80;6.30;;;;;;;;;;5073419;28;25458;-45
2022/08/03 06:31:17;;;;;;;6.40;5.90;;;;;;;;;;5083156;28;24481;-45
2022/08/03 06:33:42;;;;;;;6.53;6.13;;;;;;;;;;5073769;28;24422;-46
2022/08/03 06:36:07;;;;;;;6.50;6.00;;;;;;;;;;5087394;28;24452;-46
2022/08/03 06:38:32;;;;;;;5.90;5.40;;;;;;;;;;5089178;28;24379;-45
2022/08/03 06:40:57;;;;;;;6.72;6.18;;;;;;;;;;5089650;28;24445;-45
2022/08/03 06:43:22;;;;;;;6.75;6.13;;;;;;;;;;5089050;28;24447;-46
2022/08/03 06:45:47;;;;;;;6.50;5.97;;;;;;;;;;5089354;28;24398;-43
2022/08/03 06:48:13;;;;;;;6.40;5.90;;;;;;;;;;5088673;28;24873;-45
2022/08/03 06:50:39;;;;;;;6.10;5.70;;;;;;;;;;5087796;28;24484;-45
2022/08/03 06:53:04;;;;;;;5.90;5.50;;;;;;;;;;5089103;28;24382;-44
2022/08/03 06:55:31;;;;;;;5.70;5.20;;;;;;;;;;5088990;28;24806;-44
2022/08/03 06:57:56;;;;;;;6.07;5.57;;;;;;;;;;5088713;28;24493;-44
2022/08/03 07:00:22;;;;;;;5.38;5.03;;;;;;;;;;5088832;28;24485;-44
2022/08/03 07:02:47;;;;;;;5.47;5.07;;;;;;;;;;5088552;28;24428;-45
2022/08/03 07:05:12;;;;;;;5.40;5.00;;;;;;;;;;5088782;28;24421;-44
2022/08/03 07:07:38;;;;;;;5.10;4.77;;;;;;;;;;5087700;28;24402;-45
2022/08/03 07:10:04;;;;;;;5.20;4.90;;;;;;;;;;5088699;28;24887;-45
2022/08/03 07:12:29;;;;;;;4.60;4.30;;;;;;;;;;5088534;28;24401;-43
2022/08/03 07:14:55;;;;;;;4.50;4.20;;;;;;;;;;5088701;28;24941;-45
2022/08/03 07:17:20;;;;;;;4.55;4.25;;;;;;;;;;5087882;28;24390;-44
2022/08/03 07:19:46;;;;;;;4.53;4.15;;;;;;;;;;5088578;28;24803;-45
2022/08/03 07:22:11;;;;;;;4.88;4.57;;;;;;;;;;5088542;28;24382;-45
2022/08/03 07:24:36;;;;;;;4.50;4.20;;;;;;;;;;5088293;28;24405;-45
2022/08/03 07:27:01;;;;;;;5.00;4.50;;;;;;;;;;5088338;28;24487;-45
2022/08/03 07:29:26;;;;;;;4.93;4.60;;;;;;;;;;5087968;28;24509;-46
2022/08/03 07:31:52;;;;;;;4.60;4.30;;;;;;;;;;5088368;28;24401;-45
2022/08/03 07:34:17;;;;;;;4.70;4.40;;;;;;;;;;5087830;28;24396;-44
2022/08/03 07:36:42;;;;;;;4.37;4.07;;;;;;;;;;5088168;28;24411;-46
2022/08/03 07:39:07;;;;;;;4.43;4.13;;;;;;;;;;5087985;28;24447;-46
2022/08/03 07:41:32;;;;;;;4.15;3.85;;;;;;;;;;5087789;28;24920;-46
2022/08/03 07:43:57;;;;;;;4.20;3.90;;;;;;;;;;5088129;28;24433;-45
2022/08/03 07:46:22;;;;;;;4.70;4.30;;;;;;;;;;5087609;28;24468;-44
2022/08/03 07:48:48;;;;;;;4.28;3.88;;;;;;;;;;5086036;28;24426;-46
2022/08/03 07:51:13;;;;;;;4.40;4.10;;;;;;;;;;5087825;28;24489;-45
2022/08/03 07:53:38;;;;;;;4.50;4.17;;;;;;;;;;5087875;28;24443;-45
2022/08/03 07:56:03;;;;;;;4.00;3.80;;;;;;;;;;5087866;28;24975;-45
2022/08/03 07:58:28;;;;;;;4.80;4.50;;;;;;;;;;5087624;28;24389;-45
2022/08/03 08:00:53;;;;;;;4.60;4.30;;;;;;;;;;5087783;28;24433;-44
2022/08/03 08:03:20;;;;;;;4.40;4.10;;;;;;;;;;5087471;28;24421;-46
2022/08/03 08:05:45;;;;;;;4.65;4.35;;;;;;;;;;5087497;28;24402;-45
2022/08/03 08:08:10;;;;;;;4.27;3.87;;;;;;;;;;5077904;28;25019;-44
2022/08/03 08:10:36;;;;;;;4.15;3.85;;;;;;;;;;5067332;28;24476;-45
2022/08/03 08:13:02;;;;;;;4.10;3.80;;;;;;;;;;5067231;28;24406;-44
2022/08/03 08:15:27;;;;;;;4.28;3.88;;;;;;;;;;5067138;28;24413;-44
2022/08/03 08:17:54;;;;;;;4.10;3.80;;;;;;;;;;5066785;28;24398;-45
2022/08/03 08:20:20;;;;;;;4.45;4.05;;;;;;;;;;5067037;28;24439;-45
2022/08/03 08:22:45;;;;;;;4.30;4.00;;;;;;;;;;5066890;28;24533;-44
2022/08/03 08:25:10;;;;;;;4.07;3.77;;;;;;;;;;5067096;28;24399;-45
2022/08/03 08:27:40;;;;;;;3.80;3.50;;;;;;;;;;5066724;28;24876;-45
2022/08/03 08:30:05;;;;;;;3.40;3.20;;;;;;;;;;5066791;28;24415;-45
2022/08/03 08:32:30;;;;;;;3.50;3.30;;;;;;;;;;5066671;28;24406;-45
2022/08/03 08:34:56;;;;;;;3.80;3.50;;;;;;;;;;5066968;28;24453;-45
2022/08/03 08:37:21;;;;;;;3.25;3.05;;;;;;;;;;5066610;28;24532;-46
2022/08/03 08:39:46;;;;;;;3.50;3.30;;;;;;;;;;5066897;28;24474;-45
2022/08/03 08:42:12;;;;;;;3.33;3.13;;;;;;;;;;5066664;28;24379;-46
2022/08/03 08:44:37;;;;;;;3.50;3.30;;;;;;;;;;5066711;28;24390;-46
2022/08/03 08:47:02;;;;;;;3.88;3.58;;;;;;;;;;5065899;28;24473;-46
2022/08/03 08:49:28;;;;;;;3.65;3.35;;;;;;;;;;5080133;28;24429;-45
2022/08/03 08:51:53;;;;;;;3.40;3.20;;;;;;;;;;5086805;28;24410;-47
2022/08/03 08:54:20;;;;;;;3.45;3.25;;;;;;;;;;5086478;28;24419;-45
2022/08/03 08:56:45;;;;;;;3.60;3.30;;;;;;;;;;5086786;28;24944;-47
2022/08/03 08:59:11;;;;;;;4.20;3.80;;;;;;;;;;5086805;28;24398;-46
2022/08/03 09:01:36;;;;;;;4.00;3.70;;;;;;;;;;5086710;28;24912;-46
2022/08/03 09:04:04;;;;;;;3.80;3.50;;;;;;;;;;5086524;28;24915;-45
2022/08/03 09:06:30;;;;;;;3.88;3.58;;;;;;;;;;5086409;28;25158;-46
2022/08/03 09:08:55;;;;;;;4.17;3.60;;;;;;;;;;5086520;28;24446;-45
2022/08/03 09:11:21;;;;;;;3.40;3.20;;;;;;;;;;5086333;28;24489;-45
2022/08/03 09:13:47;;;;;;;3.60;3.40;;;;;;;;;;5086193;28;24387;-44
2022/08/03 09:16:20;;;;;;;3.87;3.57;;;;;;;;;;5086288;28;24765;-45
2022/08/03 09:18:46;;;;;;;3.60;3.40;;;;;;;;;;5086754;28;24393;-45
2022/08/03 09:21:14;;;;;;;3.40;3.20;;;;;;;;;;5087236;28;24545;-45
2022/08/03 09:23:44;;;;;;;3.50;3.30;;;;;;;;;;5086237;28;25157;-45
2022/08/03 09:26:09;;;;;;;3.70;3.40;;;;;;;;;;5087078;28;24539;-45
2022/08/03 09:28:34;;;;;;;3.60;3.30;;;;;;;;;;5085797;28;24482;-45
2022/08/03 09:30:59;;;;;;;3.30;3.10;;;;;;;;;;5086210;28;24639;-44
2022/08/03 09:33:25;;;;;;;3.30;3.10;;;;;;;;;;5086317;28;24418;-45
2022/08/03 09:35:50;;;;;;;3.50;3.20;;;;;;;;;;5086335;28;24406;-45
2022/08/03 09:38:15;;;;;;;3.40;3.10;;;;;;;;;;5086136;28;24391;-46
2022/08/03 09:40:40;;;;;;;3.60;3.30;;;;;;;;;;5086208;28;24749;-45
2022/08/03 09:43:09;;;;;;;3.40;3.20;;;;;;;;;;5086266;28;24908;-45
2022/08/03 09:45:35;;;;;;;3.20;3.00;;;;;;;;;;5086239;28;24398;-45
2022/08/03 09:48:18;;;;;;;3.30;3.00;;;;;;;;;;5085979;28;24769;-45
2022/08/03 09:50:47;;;;;;;3.10;2.90;;;;;;;;;;5086262;28;24422;-45
2022/08/03 09:53:12;;;;;;;3.22;3.03;;;;;;;;;;5086290;28;24387;-46
2022/08/03 09:55:48;;;;;;;3.40;3.10;;;;;;;;;;5085942;28;25021;-46
2022/08/03 09:58:14;;;;;;;3.40;3.20;;;;;;;;;;5086215;28;25002;-45
2022/08/03 10:00:57;;;;;;;3.33;3.03;;;;;;;;;;5086319;28;24434;-45
2022/08/03 10:03:24;;;;;;;3.33;3.10;;;;;;;;;;5085835;28;24401;-44
2022/08/03 10:05:49;;;;;;;3.40;3.20;;;;;;;;;;5086192;28;24452;-45
2022/08/03 10:08:15;;;;;;;3.53;3.30;;;;;;;;;;5085831;28;24832;-45
2022/08/03 10:10:42;;;;;;;3.38;3.17;;;;;;;;;;5085795;28;24422;-44
2022/08/03 10:13:07;;;;;;;3.40;3.20;;;;;;;;;;5086089;28;24932;-46
2022/08/03 10:15:32;;;;;;;3.50;3.20;;;;;;;;;;5085985;28;24396;-44
2022/08/03 10:17:57;;;;;;;3.40;3.20;;;;;;;;;;5085740;28;24894;-45
2022/08/03 10:20:23;;;;;;;3.42;3.22;;;;;;;;;;5086169;28;24544;-46
2022/08/03 10:22:48;;;;;;;3.63;3.43;;;;;;;;;;5086105;28;24721;-46
2022/08/03 10:25:15;;;;;;;3.73;3.43;;;;;;;;;;5087859;28;25295;-46
2022/08/03 10:27:41;;;;;;;3.70;3.40;;;;;;;;;;5089442;28;24402;-44
2022/08/03 10:30:09;;;;;;;3.50;3.30;;;;;;;;;;5089360;28;24429;-44
2022/08/03 10:32:35;;;;;;;3.60;3.30;;;;;;;;;;5089380;28;24552;-44
2022/08/03 10:35:04;;;;;;;3.50;3.30;;;;;;;;;;5089417;28;24540;-43
2022/08/03 10:37:31;;;;;;;3.20;3.00;;;;;;;;;;5089129;28;24447;-45
2022/08/03 10:39:57;;;;;;;3.38;3.17;;;;;;;;;;5089570;28;24528;-46
2022/08/03 10:42:23;;;;;;;3.67;3.38;;;;;;;;;;5089382;28;24413;-45
2022/08/03 10:44:51;;;;;;;3.40;3.10;;;;;;;;;;5089004;28;25174;-44
2022/08/03 10:47:16;;;;;;;3.50;3.30;;;;;;;;;;5089138;28;24426;-46
2022/08/03 10:49:42;;;;;;;3.90;3.60;;;;;;;;;;5088687;28;24547;-45
2022/08/03 10:52:08;;;;;;;4.07;3.67;;;;;;;;;;5089108;28;24750;-45
2022/08/03 10:54:36;;;;;;;3.72;3.42;;;;;;;;;;5089263;28;24398;-45
2022/08/03 10:59:45;;;;;;;3.70;3.40;;;;;;;;;;5089048;28;24388;-45
2022/08/03 11:02:11;;;;;;;3.10;2.90;;;;;;;;;;5089005;28;24407;-44
2022/08/03 11:04:36;;;;;;;3.40;3.20;;;;;;;;;;5088775;28;24444;-46
2022/08/03 11:07:18;;;;;;;3.70;3.50;;;;;;;;;;5088620;28;24407;-45
2022/08/03 11:09:44;;;;;;;3.25;3.05;;;;;;;;;;5088188;28;25011;-46
2022/08/03 11:12:25;;;;;;;3.50;3.20;;;;;;;;;;5089071;28;24495;-45
2022/08/03 11:14:51;;;;;;;3.47;3.28;;;;;;;;;;5088732;28;24737;-46
2022/08/03 11:17:17;;;;;;;3.58;3.20;;;;;;;;;;5088706;28;25000;-46
2022/08/03 11:19:43;;;;;;;3.90;3.60;;;;;;;;;;5088138;28;24387;-45
2022/08/03 11:22:09;;;;;;;3.40;3.20;;;;;;;;;;5088595;28;24390;-44
2022/08/03 11:24:40;;;;;;;3.90;3.60;;;;;;;;;;5088513;28;24773;-46
2022/08/03 11:27:14;;;;;;;3.50;3.27;;;;;;;;;;5088338;28;24950;-44
2022/08/03 11:30:00;;;;;;;3.20;3.00;;;;;;;;;;5087857;28;24449;-46
2022/08/03 11:32:45;;;;;;;3.28;3.05;;;;;;;;;;5088470;28;24477;-46
2022/08/03 11:35:14;;;;;;;3.30;3.10;;;;;;;;;;5088057;28;24421;-46
2022/08/03 11:38:05;;;;;;;3.25;3.03;;;;;;;;;;5088115;28;24395;-46
2022/08/03 11:40:47;;;;;;;3.33;3.13;;;;;;;;;;5088787;28;24386;-46
2022/08/03 11:43:21;;;;;;;3.10;2.90;;;;;;;;;;5088448;28;24441;-43
2022/08/03 11:46:01;;;;;;;4.15;3.25;;;;;;;;;;5088514;28;24394;-48
2022/08/03 11:48:27;;;;;;;3.20;3.00;;;;;;;;;;5087103;28;24526;-45
2022/08/03 11:50:52;;;;;;;3.20;3.00;;;;;;;;;;5088326;28;24463;-45
2022/08/03 11:53:18;;;;;;;3.40;3.20;;;;;;;;;;5087834;28;24485;-45
2022/08/03 11:55:47;;;;;;;3.20;3.00;;;;;;;;;;5088112;28;24421;-45
2022/08/03 11:58:20;;;;;;;3.50;3.20;;;;;;;;;;5087907;28;24394;-45
2022/08/03 12:00:45;;;;;;;2.97;2.78;;;;;;;;;;5087689;28;24394;-45
2022/08/03 12:03:12;;;;;;;3.27;3.07;;;;;;;;;;5087688;28;24757;-45
2022/08/03 12:05:39;;;;;;;3.20;3.00;;;;;;;;;;5087841;28;24544;-46
2022/08/03 12:08:04;;;;;;;3.10;2.90;;;;;;;;;;5087562;28;24540;-46
2022/08/03 12:10:29;;;;;;;3.27;3.07;;;;;;;;;;5087580;28;24520;-44
2022/08/03 12:12:56;;;;;;;3.70;3.40;;;;;;;;;;5087665;28;24390;-45
2022/08/03 12:15:28;;;;;;;3.20;3.00;;;;;;;;;;5087377;28;24455;-45
2022/08/03 12:17:54;;;;;;;3.17;2.97;;;;;;;;;;5087485;28;24767;-45
2022/08/03 12:20:21;;;;;;;3.20;3.00;;;;;;;;;;5086948;28;24780;-45
2022/08/03 12:22:46;;;;;;;3.50;3.30;;;;;;;;;;5087352;28;24437;-44
2022/08/03 12:25:19;;;;;;;3.43;3.23;;;;;;;;;;5087730;28;24405;-44
2022/08/03 12:27:44;;;;;;;3.10;2.90;;;;;;;;;;5087278;28;24407;-45
2022/08/03 12:30:10;;;;;;;3.28;3.08;;;;;;;;;;5086898;28;24425;-45
2022/08/03 12:32:35;;;;;;;3.20;3.00;;;;;;;;;;5087158;28;24437;-45
2022/08/03 12:35:03;;;;;;;3.40;3.20;;;;;;;;;;5087235;28;24397;-45
2022/08/03 12:37:28;;;;;;;3.30;3.10;;;;;;;;;;5087289;28;24406;-46
2022/08/03 12:39:54;;;;;;;3.50;3.30;;;;;;;;;;5087216;28;24455;-45
2022/08/03 12:42:20;;;;;;;3.10;2.90;;;;;;;;;;5086784;28;24390;-46
2022/08/03 12:44:45;;;;;;;3.50;3.20;;;;;;;;;;5085417;28;24792;-46
2022/08/03 12:47:11;;;;;;;3.50;3.20;;;;;;;;;;5086160;28;24476;-45
2022/08/03 12:49:45;;;;;;;4.03;3.60;;;;;;;;;;5086914;28;24995;-46
2022/08/03 12:52:11;;;;;;;3.22;3.03;;;;;;;;;;5086656;28;24390;-46
2022/08/03 12:54:36;;;;;;;3.23;3.00;;;;;;;;;;5087069;28;24409;-45
2022/08/03 12:57:01;;;;;;;3.60;3.40;;;;;;;;;;5086962;28;24963;-45
2022/08/03 12:59:28;;;;;;;3.20;3.00;;;;;;;;;;5086596;28;24943;-45
2022/08/03 13:01:53;;;;;;;3.40;3.10;;;;;;;;;;5086563;28;24413;-47
2022/08/03 13:04:25;;;;;;;3.17;2.97;;;;;;;;;;5086545;28;24394;-44
2022/08/03 13:06:59;;;;;;;3.50;3.30;;;;;;;;;;5087224;28;24451;-45
2022/08/03 13:09:27;;;;;;;3.58;3.38;;;;;;;;;;5086442;28;24461;-45
2022/08/03 13:12:08;;;;;;;3.30;3.10;;;;;;;;;;5086906;28;24647;-45
2022/08/03 13:14:34;;;;;;;3.20;3.00;;;;;;;;;;5086563;28;24461;-45
2022/08/03 13:16:59;;;;;;;3.03;2.87;;;;;;;;;;5086951;28;24906;-45
2022/08/03 13:19:24;;;;;;;3.30;3.10;;;;;;;;;;5086523;28;24837;-45
2022/08/03 13:21:49;;;;;;;3.00;2.80;;;;;;;;;;5086868;28;24455;-45
2022/08/03 13:24:14;;;;;;;2.87;2.67;;;;;;;;;;5086263;28;24402;-46
2022/08/03 13:26:40;;;;;;;3.70;2.70;;;;;;;;;;5086489;28;24402;-46
2022/08/03 13:29:05;;;;;;;3.10;2.90;;;;;;;;;;5086445;28;24461;-46
2022/08/03 13:31:30;;;;;;;3.20;3.00;;;;;;;;;;5086778;28;24485;-44
2022/08/03 13:33:55;;;;;;;3.10;2.80;;;;;;;;;;5087049;28;25044;-45
2022/08/03 13:36:20;;;;;;;3.50;2.90;;;;;;;;;;5086363;28;24390;-44
2022/08/03 13:38:45;;;;;;;3.10;2.90;;;;;;;;;;5086323;28;24467;-45
2022/08/03 13:41:10;;;;;;;3.37;3.07;;;;;;;;;;5086401;28;24441;-45
2022/08/03 13:43:36;;;;;;;3.20;3.00;;;;;;;;;;5086515;28;24913;-45
2022/08/03 13:46:01;;;;;;;3.30;3.00;;;;;;;;;;5086472;28;24398;-45
2022/08/03 13:48:26;;;;;;;3.40;3.20;;;;;;;;;;5085797;28;24437;-45
2022/08/03 13:50:51;;;;;;;2.90;2.80;;;;;;;;;;5086139;28;24982;-46
2022/08/03 13:53:16;;;;;;;3.13;2.83;;;;;;;;;;5086297;28;24543;-48
2022/08/03 13:55:41;;;;;;;3.33;3.13;;;;;;;;;;5086255;28;24511;-46
2022/08/03 13:58:10;;;;;;;3.10;2.90;;;;;;;;;;5087218;28;24749;-45
2022/08/03 14:00:36;;;;;;;3.05;2.85;;;;;;;;;;5089919;28;24473;-45
2022/08/03 14:03:01;;;;;;;3.30;3.10;;;;;;;;;;5090380;28;24532;-45
2022/08/03 14:05:26;;;;;;;3.20;3.00;;;;;;;;;;5090285;28;24425;-46
2022/08/03 14:07:51;;;;;;;3.13;2.92;;;;;;;;;;5090028;28;24422;-46
2022/08/03 14:10:18;;;;;;;3.78;3.13;;;;;;;;;;5089823;28;24430;-45
2022/08/03 14:12:43;;;;;;;3.17;2.90;;;;;;;;;;5089645;28;24382;-44
2022/08/03 14:15:09;;;;;;;3.50;3.30;;;;;;;;;;5090092;28;24427;-45
2022/08/03 14:17:34;;;;;;;3.00;2.90;;;;;;;;;;5090055;28;24478;-44
2022/08/03 14:19:59;;;;;;;3.27;3.07;;;;;;;;;;5089736;28;24402;-45
2022/08/03 14:22:24;;;;;;;3.28;2.97;;;;;;;;;;5089628;28;24509;-44
2022/08/03 14:24:49;;;;;;;3.00;2.80;;;;;;;;;;5089547;28;24456;-44
2022/08/03 14:27:15;;;;;;;3.90;3.20;;;;;;;;;;5089626;28;24397;-44
2022/08/03 14:29:40;;;;;;;3.08;2.88;;;;;;;;;;5089543;28;24426;-44
2022/08/03 14:32:05;;;;;;;3.35;2.83;;;;;;;;;;5090068;28;24748;-44
2022/08/03 14:34:30;;;;;;;3.20;2.90;;;;;;;;;;5089674;28;24386;-45
2022/08/03 14:36:55;;;;;;;2.80;2.60;;;;;;;;;;5089785;28;24590;-44
2022/08/03 14:39:20;;;;;;;2.72;2.63;;;;;;;;;;5089295;28;24457;-44
2022/08/03 14:41:45;;;;;;;2.72;2.60;;;;;;;;;;5089383;28;24425;-45
2022/08/03 14:44:11;;;;;;;2.90;2.70;;;;;;;;;;5089083;28;24401;-45
2022/08/03 14:46:36;;;;;;;3.20;3.00;;;;;;;;;;5089180;28;24510;-44
2022/08/03 14:49:01;;;;;;;3.10;2.80;;;;;;;;;;5089160;28;24404;-44
2022/08/03 14:51:28;;;;;;;2.80;2.60;;;;;;;;;;5089168;28;24448;-45